sensor_id;sensor_type;location;lat;lon;timestamp;temperature;humidity
57108;DHT22;42987;52.916;6.542;2023-04-25T00:00:28;6.80;99.90
57108;DHT22;42987;52.916;6.542;2023-04-25T00:02:54;6.70;99.90
57108;DHT22;42987;52.916;6.542;2023-04-25T00:05:22;6.80;99.90
57108;DHT22;42987;52.916;6.542;2023-04-25T00:07:49;6.70;99.90
57108;DHT22;42987;52.916;6.542;2023-04-25T00:10:15;6.60;99.90
57108;DHT22;42987;52.916;6.542;2023-04-25T00:12:41;6.70;99.90
57108;DHT22;42987;52.916;6.542;2023-04-25T00:15:07;6.60;99.90
57108;DHT22;42987;52.916;6.542;2023-04-25T00:17:33;6.60;99.90
57108;DHT22;42987;52.916;6.542;2023-04-25T00:20:00;6.60;99.90
57108;DHT22;42987;52.916;6.542;2023-04-25T00:22:30;6.50;99.90
57108;DHT22;42987;52.916;6.542;2023-04-25T00:24:55;6.50;99.90
57108;DHT22;42987;52.916;6.542;2023-04-25T00:27:22;6.50;99.90
57108;DHT22;42987;52.916;6.542;2023-04-25T00:29:48;6.50;99.90
57108;DHT22;42987;52.916;6.542;2023-04-25T00:32:14;6.50;99.90
57108;DHT22;42987;52.916;6.542;2023-04-25T00:34:39;6.50;99.90
57108;DHT22;42987;52.916;6.542;2023-04-25T00:37:05;6.40;99.90
57108;DHT22;42987;52.916;6.542;2023-04-25T00:39:31;6.40;99.90
57108;DHT22;42987;52.916;6.542;2023-04-25T00:41:58;6.50;99.90
57108;DHT22;42987;52.916;6.542;2023-04-25T00:44:24;6.40;99.90
57108;DHT22;42987;52.916;6.542;2023-04-25T00:46:54;6.40;99.90
57108;DHT22;42987;52.916;6.542;2023-04-25T00:49:21;6.40;99.90
57108;DHT22;42987;52.916;6.542;2023-04-25T00:51:46;6.30;99.90
57108;DHT22;42987;52.916;6.542;2023-04-25T00:54:13;6.30;99.90
57108;DHT22;42987;52.916;6.542;2023-04-25T00:56:39;6.20;99.90
57108;DHT22;42987;52.916;6.542;2023-04-25T00:59:05;6.20;99.90
57108;DHT22;42987;52.916;6.542;2023-04-25T01:01:32;6.20;99.90
57108;DHT22;42987;52.916;6.542;2023-04-25T01:03:59;6.10;99.90
57108;DHT22;42987;52.916;6.542;2023-04-25T01:06:25;6.10;99.90
57108;DHT22;42987;52.916;6.542;2023-04-25T01:08:51;6.10;99.90
57108;DHT22;42987;52.916;6.542;2023-04-25T01:11:17;6.00;99.90
57108;DHT22;42987;52.916;6.542;2023-04-25T01:13:43;6.00;99.90
57108;DHT22;42987;52.916;6.542;2023-04-25T01:16:09;6.00;99.90
57108;DHT22;42987;52.916;6.542;2023-04-25T01:18:35;5.90;99.90
57108;DHT22;42987;52.916;6.542;2023-04-25T01:21:11;5.90;99.90
57108;DHT22;42987;52.916;6.542;2023-04-25T01:23:42;5.90;99.90
57108;DHT22;42987;52.916;6.542;2023-04-25T01:26:11;5.90;99.90
57108;DHT22;42987;52.916;6.542;2023-04-25T01:28:39;5.90;99.90
57108;DHT22;42987;52.916;6.542;2023-04-25T01:31:08;5.80;99.90
57108;DHT22;42987;52.916;6.542;2023-04-25T01:33:34;5.80;99.90
57108;DHT22;42987;52.916;6.542;2023-04-25T01:36:00;5.90;99.90
57108;DHT22;42987;52.916;6.542;2023-04-25T01:38:25;5.80;99.90
57108;DHT22;42987;52.916;6.542;2023-04-25T01:40:51;5.80;99.90
57108;DHT22;42987;52.916;6.542;2023-04-25T01:43:18;5.80;99.90
57108;DHT22;42987;52.916;6.542;2023-04-25T01:45:44;5.80;99.90
57108;DHT22;42987;52.916;6.542;2023-04-25T01:48:12;5.80;99.90
57108;DHT22;42987;52.916;6.542;2023-04-25T01:50:39;5.90;99.90
57108;DHT22;42987;52.916;6.542;2023-04-25T01:53:06;5.90;99.90
57108;DHT22;42987;52.916;6.542;2023-04-25T01:55:33;5.90;99.90
57108;DHT22;42987;52.916;6.542;2023-04-25T01:58:01;5.90;99.90
57108;DHT22;42987;52.916;6.542;2023-04-25T02:00:27;5.90;99.90
57108;DHT22;42987;52.916;6.542;2023-04-25T02:02:58;5.90;99.90
57108;DHT22;42987;52.916;6.542;2023-04-25T02:05:23;5.90;99.90
57108;DHT22;42987;52.916;6.542;2023-04-25T02:07:49;5.90;99.90
57108;DHT22;42987;52.916;6.542;2023-04-25T02:10:15;5.90;99.90
57108;DHT22;42987;52.916;6.542;2023-04-25T02:12:41;5.90;99.90
57108;DHT22;42987;52.916;6.542;2023-04-25T02:15:07;5.90;99.90
57108;DHT22;42987;52.916;6.542;2023-04-25T02:17:32;5.90;99.90
57108;DHT22;42987;52.916;6.542;2023-04-25T02:19:59;5.90;99.90
57108;DHT22;42987;52.916;6.542;2023-04-25T02:22:25;5.90;99.90
57108;DHT22;42987;52.916;6.542;2023-04-25T02:24:52;5.90;99.90
57108;DHT22;42987;52.916;6.542;2023-04-25T02:27:18;5.90;99.90
57108;DHT22;42987;52.916;6.542;2023-04-25T02:29:44;5.90;99.90
57108;DHT22;42987;52.916;6.542;2023-04-25T02:32:10;5.90;99.90
57108;DHT22;42987;52.916;6.542;2023-04-25T02:34:36;6.00;99.90
57108;DHT22;42987;52.916;6.542;2023-04-25T02:37:02;5.90;99.90
57108;DHT22;42987;52.916;6.542;2023-04-25T02:39:28;5.90;99.90
57108;DHT22;42987;52.916;6.542;2023-04-25T02:41:54;5.90;99.90
57108;DHT22;42987;52.916;6.542;2023-04-25T02:44:19;5.90;99.90
57108;DHT22;42987;52.916;6.542;2023-04-25T02:46:45;5.90;99.90
57108;DHT22;42987;52.916;6.542;2023-04-25T02:49:11;5.90;99.90
57108;DHT22;42987;52.916;6.542;2023-04-25T02:51:37;5.90;99.90
57108;DHT22;42987;52.916;6.542;2023-04-25T02:54:03;6.00;99.90
57108;DHT22;42987;52.916;6.542;2023-04-25T02:56:28;5.90;99.90
57108;DHT22;42987;52.916;6.542;2023-04-25T02:58:54;5.90;99.90
57108;DHT22;42987;52.916;6.542;2023-04-25T03:01:20;5.80;99.90
57108;DHT22;42987;52.916;6.542;2023-04-25T03:03:46;5.80;99.90
57108;DHT22;42987;52.916;6.542;2023-04-25T03:06:12;5.80;99.90
57108;DHT22;42987;52.916;6.542;2023-04-25T03:08:37;5.80;99.90
57108;DHT22;42987;52.916;6.542;2023-04-25T03:11:03;5.80;99.90
57108;DHT22;42987;52.916;6.542;2023-04-25T03:13:29;5.80;99.90
57108;DHT22;42987;52.916;6.542;2023-04-25T03:15:55;5.80;99.90
57108;DHT22;42987;52.916;6.542;2023-04-25T03:18:21;5.80;99.90
57108;DHT22;42987;52.916;6.542;2023-04-25T03:20:47;5.80;99.90
57108;DHT22;42987;52.916;6.542;2023-04-25T03:23:13;5.80;99.90
57108;DHT22;42987;52.916;6.542;2023-04-25T03:25:39;5.80;99.90
57108;DHT22;42987;52.916;6.542;2023-04-25T03:28:05;5.80;99.90
57108;DHT22;42987;52.916;6.542;2023-04-25T03:30:31;5.80;99.90
57108;DHT22;42987;52.916;6.542;2023-04-25T03:32:57;5.80;99.90
57108;DHT22;42987;52.916;6.542;2023-04-25T03:35:29;5.70;99.90
57108;DHT22;42987;52.916;6.542;2023-04-25T03:37:55;5.60;99.90
57108;DHT22;42987;52.916;6.542;2023-04-25T03:40:21;5.60;99.90
57108;DHT22;42987;52.916;6.542;2023-04-25T03:42:47;5.60;99.90
57108;DHT22;42987;52.916;6.542;2023-04-25T03:45:12;5.50;99.90
57108;DHT22;42987;52.916;6.542;2023-04-25T03:47:38;5.50;99.90
57108;DHT22;42987;52.916;6.542;2023-04-25T03:50:04;5.40;99.90
57108;DHT22;42987;52.916;6.542;2023-04-25T03:52:30;5.40;99.90
57108;DHT22;42987;52.916;6.542;2023-04-25T03:54:56;5.30;99.90
57108;DHT22;42987;52.916;6.542;2023-04-25T03:57:22;5.30;99.90
57108;DHT22;42987;52.916;6.542;2023-04-25T03:59:48;5.30;99.90
57108;DHT22;42987;52.916;6.542;2023-04-25T04:02:14;5.20;99.90
57108;DHT22;42987;52.916;6.542;2023-04-25T04:04:40;5.20;99.90
57108;DHT22;42987;52.916;6.542;2023-04-25T04:07:06;5.20;99.90
57108;DHT22;42987;52.916;6.542;2023-04-25T04:09:32;5.20;99.90
57108;DHT22;42987;52.916;6.542;2023-04-25T04:11:58;5.20;99.90
57108;DHT22;42987;52.916;6.542;2023-04-25T04:14:24;5.20;99.90
57108;DHT22;42987;52.916;6.542;2023-04-25T04:16:51;5.20;99.90
57108;DHT22;42987;52.916;6.542;2023-04-25T04:19:17;5.20;99.90
57108;DHT22;42987;52.916;6.542;2023-04-25T04:21:43;5.20;99.90
57108;DHT22;42987;52.916;6.542;2023-04-25T04:24:08;5.10;99.90
57108;DHT22;42987;52.916;6.542;2023-04-25T04:26:35;5.10;99.90
57108;DHT22;42987;52.916;6.542;2023-04-25T04:29:02;5.10;99.90
57108;DHT22;42987;52.916;6.542;2023-04-25T04:31:28;5.10;99.90
57108;DHT22;42987;52.916;6.542;2023-04-25T04:33:55;5.10;99.90
57108;DHT22;42987;52.916;6.542;2023-04-25T04:36:21;5.10;99.90
57108;DHT22;42987;52.916;6.542;2023-04-25T04:38:51;5.10;99.90
57108;DHT22;42987;52.916;6.542;2023-04-25T04:41:18;5.20;99.90
57108;DHT22;42987;52.916;6.542;2023-04-25T04:43:45;5.20;99.90
57108;DHT22;42987;52.916;6.542;2023-04-25T04:46:10;5.20;99.90
57108;DHT22;42987;52.916;6.542;2023-04-25T04:48:38;5.20;99.90
57108;DHT22;42987;52.916;6.542;2023-04-25T04:51:06;5.10;99.90
57108;DHT22;42987;52.916;6.542;2023-04-25T04:53:32;5.20;99.90
57108;DHT22;42987;52.916;6.542;2023-04-25T04:55:58;5.20;99.90
57108;DHT22;42987;52.916;6.542;2023-04-25T04:58:26;5.20;99.90
57108;DHT22;42987;52.916;6.542;2023-04-25T05:00:55;5.20;99.90
57108;DHT22;42987;52.916;6.542;2023-04-25T05:03:20;5.20;99.90
57108;DHT22;42987;52.916;6.542;2023-04-25T05:05:46;5.20;99.90
57108;DHT22;42987;52.916;6.542;2023-04-25T05:08:12;5.20;99.90
57108;DHT22;42987;52.916;6.542;2023-04-25T05:10:37;5.20;99.90
57108;DHT22;42987;52.916;6.542;2023-04-25T05:13:03;5.20;99.90
57108;DHT22;42987;52.916;6.542;2023-04-25T05:15:29;5.20;99.90
57108;DHT22;42987;52.916;6.542;2023-04-25T05:17:55;5.20;99.90
57108;DHT22;42987;52.916;6.542;2023-04-25T05:20:21;5.20;99.90
57108;DHT22;42987;52.916;6.542;2023-04-25T05:22:46;5.20;99.90
57108;DHT22;42987;52.916;6.542;2023-04-25T05:25:12;5.20;99.90
57108;DHT22;42987;52.916;6.542;2023-04-25T05:27:38;5.20;99.90
57108;DHT22;42987;52.916;6.542;2023-04-25T05:30:04;5.30;99.90
57108;DHT22;42987;52.916;6.542;2023-04-25T05:32:31;5.30;99.90
57108;DHT22;42987;52.916;6.542;2023-04-25T05:34:56;5.40;99.90
57108;DHT22;42987;52.916;6.542;2023-04-25T05:37:22;5.40;99.90
57108;DHT22;42987;52.916;6.542;2023-04-25T05:39:48;5.50;99.90
57108;DHT22;42987;52.916;6.542;2023-04-25T05:42:14;5.60;99.90
57108;DHT22;42987;52.916;6.542;2023-04-25T05:44:40;5.70;99.90
57108;DHT22;42987;52.916;6.542;2023-04-25T05:47:07;5.70;99.90
57108;DHT22;42987;52.916;6.542;2023-04-25T05:49:34;5.80;99.90
57108;DHT22;42987;52.916;6.542;2023-04-25T05:52:00;5.80;99.90
57108;DHT22;42987;52.916;6.542;2023-04-25T05:54:25;5.80;99.90
57108;DHT22;42987;52.916;6.542;2023-04-25T05:56:51;5.90;99.90
57108;DHT22;42987;52.916;6.542;2023-04-25T05:59:17;5.90;99.90
57108;DHT22;42987;52.916;6.542;2023-04-25T06:01:43;6.00;99.90
57108;DHT22;42987;52.916;6.542;2023-04-25T06:04:09;6.00;99.90
57108;DHT22;42987;52.916;6.542;2023-04-25T06:06:34;6.00;99.90
57108;DHT22;42987;52.916;6.542;2023-04-25T06:09:00;6.10;99.90
57108;DHT22;42987;52.916;6.542;2023-04-25T06:11:26;6.10;99.90
57108;DHT22;42987;52.916;6.542;2023-04-25T06:13:52;6.20;99.90
57108;DHT22;42987;52.916;6.542;2023-04-25T06:16:17;6.20;99.90
57108;DHT22;42987;52.916;6.542;2023-04-25T06:18:43;6.20;99.90
57108;DHT22;42987;52.916;6.542;2023-04-25T06:21:09;6.30;99.90
57108;DHT22;42987;52.916;6.542;2023-04-25T06:23:35;6.30;99.90
57108;DHT22;42987;52.916;6.542;2023-04-25T06:26:00;6.40;99.90
57108;DHT22;42987;52.916;6.542;2023-04-25T06:28:26;6.40;99.90
57108;DHT22;42987;52.916;6.542;2023-04-25T06:30:52;6.40;99.90
57108;DHT22;42987;52.916;6.542;2023-04-25T06:33:18;6.40;99.90
57108;DHT22;42987;52.916;6.542;2023-04-25T06:35:43;6.40;99.90
57108;DHT22;42987;52.916;6.542;2023-04-25T06:38:09;6.60;99.90
57108;DHT22;42987;52.916;6.542;2023-04-25T06:40:35;6.70;99.90
57108;DHT22;42987;52.916;6.542;2023-04-25T06:43:01;6.80;99.90
57108;DHT22;42987;52.916;6.542;2023-04-25T06:45:27;7.00;99.90
57108;DHT22;42987;52.916;6.542;2023-04-25T06:47:56;7.10;99.90
57108;DHT22;42987;52.916;6.542;2023-04-25T06:50:22;7.20;99.90
57108;DHT22;42987;52.916;6.542;2023-04-25T06:52:47;7.10;99.90
57108;DHT22;42987;52.916;6.542;2023-04-25T06:55:13;6.90;99.90
57108;DHT22;42987;52.916;6.542;2023-04-25T06:57:39;6.60;99.90
57108;DHT22;42987;52.916;6.542;2023-04-25T07:00:05;6.50;99.90
57108;DHT22;42987;52.916;6.542;2023-04-25T07:02:34;6.50;99.90
57108;DHT22;42987;52.916;6.542;2023-04-25T07:05:00;6.50;99.90
57108;DHT22;42987;52.916;6.542;2023-04-25T07:07:26;6.70;99.90
57108;DHT22;42987;52.916;6.542;2023-04-25T07:09:52;6.90;99.90
57108;DHT22;42987;52.916;6.542;2023-04-25T07:12:18;7.10;99.90
57108;DHT22;42987;52.916;6.542;2023-04-25T07:14:43;7.30;99.90
57108;DHT22;42987;52.916;6.542;2023-04-25T07:17:09;7.40;99.90
57108;DHT22;42987;52.916;6.542;2023-04-25T07:19:35;7.40;99.90
57108;DHT22;42987;52.916;6.542;2023-04-25T07:22:02;7.50;99.90
57108;DHT22;42987;52.916;6.542;2023-04-25T07:24:28;7.50;99.90
57108;DHT22;42987;52.916;6.542;2023-04-25T07:26:54;7.50;99.90
57108;DHT22;42987;52.916;6.542;2023-04-25T07:29:19;7.50;99.90
57108;DHT22;42987;52.916;6.542;2023-04-25T07:31:45;7.50;99.90
57108;DHT22;42987;52.916;6.542;2023-04-25T07:34:14;7.50;99.90
57108;DHT22;42987;52.916;6.542;2023-04-25T07:36:41;7.60;99.90
57108;DHT22;42987;52.916;6.542;2023-04-25T07:39:07;7.60;99.90
57108;DHT22;42987;52.916;6.542;2023-04-25T07:41:34;7.50;99.90
57108;DHT22;42987;52.916;6.542;2023-04-25T07:44:00;7.60;99.90
57108;DHT22;42987;52.916;6.542;2023-04-25T07:46:26;7.70;99.90
57108;DHT22;42987;52.916;6.542;2023-04-25T07:48:51;7.90;99.90
57108;DHT22;42987;52.916;6.542;2023-04-25T07:51:17;8.10;99.90
57108;DHT22;42987;52.916;6.542;2023-04-25T07:53:45;8.20;99.90
57108;DHT22;42987;52.916;6.542;2023-04-25T07:56:11;8.30;99.90
57108;DHT22;42987;52.916;6.542;2023-04-25T07:58:37;8.50;99.90
57108;DHT22;42987;52.916;6.542;2023-04-25T08:01:03;8.50;99.90
57108;DHT22;42987;52.916;6.542;2023-04-25T08:03:29;8.30;99.90
57108;DHT22;42987;52.916;6.542;2023-04-25T08:05:55;8.00;99.90
57108;DHT22;42987;52.916;6.542;2023-04-25T08:08:21;7.70;99.90
57108;DHT22;42987;52.916;6.542;2023-04-25T08:10:47;7.40;99.90
57108;DHT22;42987;52.916;6.542;2023-04-25T08:13:16;7.10;99.90
57108;DHT22;42987;52.916;6.542;2023-04-25T08:15:42;7.00;99.90
57108;DHT22;42987;52.916;6.542;2023-04-25T08:18:08;7.00;99.90
57108;DHT22;42987;52.916;6.542;2023-04-25T08:20:34;7.20;99.90
57108;DHT22;42987;52.916;6.542;2023-04-25T08:22:59;7.50;99.90
57108;DHT22;42987;52.916;6.542;2023-04-25T08:25:25;7.80;99.90
57108;DHT22;42987;52.916;6.542;2023-04-25T08:27:51;8.10;99.90
57108;DHT22;42987;52.916;6.542;2023-04-25T08:30:17;8.30;99.90
57108;DHT22;42987;52.916;6.542;2023-04-25T08:32:42;8.50;99.90
57108;DHT22;42987;52.916;6.542;2023-04-25T08:35:09;8.50;99.90
57108;DHT22;42987;52.916;6.542;2023-04-25T08:37:35;8.60;99.90
57108;DHT22;42987;52.916;6.542;2023-04-25T08:40:03;8.70;99.90
57108;DHT22;42987;52.916;6.542;2023-04-25T08:42:33;8.90;99.90
57108;DHT22;42987;52.916;6.542;2023-04-25T08:45:02;9.00;99.90
57108;DHT22;42987;52.916;6.542;2023-04-25T08:47:30;9.20;99.90
57108;DHT22;42987;52.916;6.542;2023-04-25T08:49:59;9.30;99.90
57108;DHT22;42987;52.916;6.542;2023-04-25T08:52:28;9.30;99.90
57108;DHT22;42987;52.916;6.542;2023-04-25T08:54:57;9.10;99.90
57108;DHT22;42987;52.916;6.542;2023-04-25T08:57:26;9.00;99.90
57108;DHT22;42987;52.916;6.542;2023-04-25T08:59:56;9.00;99.90
57108;DHT22;42987;52.916;6.542;2023-04-25T09:02:22;9.00;99.90
57108;DHT22;42987;52.916;6.542;2023-04-25T09:04:49;9.10;99.90
57108;DHT22;42987;52.916;6.542;2023-04-25T09:07:15;9.20;99.90
57108;DHT22;42987;52.916;6.542;2023-04-25T09:09:44;9.30;99.20
57108;DHT22;42987;52.916;6.542;2023-04-25T09:12:10;9.00;99.80
57108;DHT22;42987;52.916;6.542;2023-04-25T09:14:35;8.60;99.90
57108;DHT22;42987;52.916;6.542;2023-04-25T09:17:03;7.90;99.90
57108;DHT22;42987;52.916;6.542;2023-04-25T09:19:34;7.50;99.90
57108;DHT22;42987;52.916;6.542;2023-04-25T09:22:02;7.20;99.90
57108;DHT22;42987;52.916;6.542;2023-04-25T09:24:58;6.90;99.90
57108;DHT22;42987;52.916;6.542;2023-04-25T09:27:27;6.80;99.90
57108;DHT22;42987;52.916;6.542;2023-04-25T09:29:58;6.70;99.90
57108;DHT22;42987;52.916;6.542;2023-04-25T09:32:27;6.80;99.90
57108;DHT22;42987;52.916;6.542;2023-04-25T09:34:55;7.00;99.90
57108;DHT22;42987;52.916;6.542;2023-04-25T09:37:29;7.20;99.90
57108;DHT22;42987;52.916;6.542;2023-04-25T09:39:59;7.40;99.90
57108;DHT22;42987;52.916;6.542;2023-04-25T09:42:29;7.80;99.90
57108;DHT22;42987;52.916;6.542;2023-04-25T09:44:57;8.10;99.90
57108;DHT22;42987;52.916;6.542;2023-04-25T09:47:25;8.40;99.90
57108;DHT22;42987;52.916;6.542;2023-04-25T09:49:53;8.70;99.90
57108;DHT22;42987;52.916;6.542;2023-04-25T09:52:21;8.90;99.90
57108;DHT22;42987;52.916;6.542;2023-04-25T09:54:52;9.00;99.90
57108;DHT22;42987;52.916;6.542;2023-04-25T09:57:23;9.00;99.90
57108;DHT22;42987;52.916;6.542;2023-04-25T09:59:53;9.10;99.90
57108;DHT22;42987;52.916;6.542;2023-04-25T10:02:24;8.90;99.90
57108;DHT22;42987;52.916;6.542;2023-04-25T10:04:57;8.60;99.90
57108;DHT22;42987;52.916;6.542;2023-04-25T10:07:30;8.30;99.90
57108;DHT22;42987;52.916;6.542;2023-04-25T10:10:00;8.00;99.90
57108;DHT22;42987;52.916;6.542;2023-04-25T10:12:28;7.80;99.90
57108;DHT22;42987;52.916;6.542;2023-04-25T10:14:58;7.80;99.90
57108;DHT22;42987;52.916;6.542;2023-04-25T10:17:24;7.90;99.90
57108;DHT22;42987;52.916;6.542;2023-04-25T10:19:52;8.00;99.90
57108;DHT22;42987;52.916;6.542;2023-04-25T10:22:44;8.30;99.90
57108;DHT22;42987;52.916;6.542;2023-04-25T10:25:10;8.80;99.90
57108;DHT22;42987;52.916;6.542;2023-04-25T10:27:36;9.10;99.90
57108;DHT22;42987;52.916;6.542;2023-04-25T10:32:36;9.80;99.90
57108;DHT22;42987;52.916;6.542;2023-04-25T10:35:15;10.00;99.90
57108;DHT22;42987;52.916;6.542;2023-04-25T10:40:24;10.10;99.90
57108;DHT22;42987;52.916;6.542;2023-04-25T10:42:52;10.00;99.90
57108;DHT22;42987;52.916;6.542;2023-04-25T10:45:20;10.00;99.90
57108;DHT22;42987;52.916;6.542;2023-04-25T10:47:46;10.00;98.80
57108;DHT22;42987;52.916;6.542;2023-04-25T10:50:14;10.00;99.00
57108;DHT22;42987;52.916;6.542;2023-04-25T10:52:43;10.00;98.80
57108;DHT22;42987;52.916;6.542;2023-04-25T10:55:12;10.10;97.70
57108;DHT22;42987;52.916;6.542;2023-04-25T10:57:42;10.20;98.20
57108;DHT22;42987;52.916;6.542;2023-04-25T11:00:17;10.30;99.90
57108;DHT22;42987;52.916;6.542;2023-04-25T11:02:48;10.40;99.90
57108;DHT22;42987;52.916;6.542;2023-04-25T11:05:34;10.30;99.70
57108;DHT22;42987;52.916;6.542;2023-04-25T11:08:01;9.90;97.40
57108;DHT22;42987;52.916;6.542;2023-04-25T11:10:32;9.60;97.40
57108;DHT22;42987;52.916;6.542;2023-04-25T11:13:00;9.30;96.30
57108;DHT22;42987;52.916;6.542;2023-04-25T11:15:27;9.00;97.00
57108;DHT22;42987;52.916;6.542;2023-04-25T11:17:54;9.00;99.90
57108;DHT22;42987;52.916;6.542;2023-04-25T11:20:20;9.20;99.80
57108;DHT22;42987;52.916;6.542;2023-04-25T11:22:47;9.30;98.50
57108;DHT22;42987;52.916;6.542;2023-04-25T11:25:15;9.30;97.40
57108;DHT22;42987;52.916;6.542;2023-04-25T11:27:51;9.30;97.10
57108;DHT22;42987;52.916;6.542;2023-04-25T11:30:17;9.30;98.00
57108;DHT22;42987;52.916;6.542;2023-04-25T11:32:43;9.20;97.70
57108;DHT22;42987;52.916;6.542;2023-04-25T11:35:10;9.20;97.60
57108;DHT22;42987;52.916;6.542;2023-04-25T11:37:40;9.20;97.60
57108;DHT22;42987;52.916;6.542;2023-04-25T11:40:07;9.20;97.40
57108;DHT22;42987;52.916;6.542;2023-04-25T11:42:36;9.10;97.60
57108;DHT22;42987;52.916;6.542;2023-04-25T11:45:03;9.10;98.60
57108;DHT22;42987;52.916;6.542;2023-04-25T11:47:30;9.30;98.50
57108;DHT22;42987;52.916;6.542;2023-04-25T11:50:02;9.60;98.70
57108;DHT22;42987;52.916;6.542;2023-04-25T11:55:10;10.20;99.40
57108;DHT22;42987;52.916;6.542;2023-04-25T11:57:39;10.20;97.20
57108;DHT22;42987;52.916;6.542;2023-04-25T12:02:53;9.80;97.30
57108;DHT22;42987;52.916;6.542;2023-04-25T12:05:20;9.60;98.70
57108;DHT22;42987;52.916;6.542;2023-04-25T12:07:51;9.50;98.60
57108;DHT22;42987;52.916;6.542;2023-04-25T12:10:18;9.40;97.10
57108;DHT22;42987;52.916;6.542;2023-04-25T12:12:45;9.50;98.20
57108;DHT22;42987;52.916;6.542;2023-04-25T12:15:22;9.70;99.10
57108;DHT22;42987;52.916;6.542;2023-04-25T12:17:50;9.80;98.50
57108;DHT22;42987;52.916;6.542;2023-04-25T12:20:19;9.70;98.10
57108;DHT22;42987;52.916;6.542;2023-04-25T12:22:48;9.50;98.30
57108;DHT22;42987;52.916;6.542;2023-04-25T12:25:40;9.40;99.30
57108;DHT22;42987;52.916;6.542;2023-04-25T12:28:15;9.50;99.90
57108;DHT22;42987;52.916;6.542;2023-04-25T12:31:04;9.50;98.30
57108;DHT22;42987;52.916;6.542;2023-04-25T12:33:35;9.40;99.90
57108;DHT22;42987;52.916;6.542;2023-04-25T12:36:02;9.20;99.90
57108;DHT22;42987;52.916;6.542;2023-04-25T12:38:41;8.90;99.90
57108;DHT22;42987;52.916;6.542;2023-04-25T12:41:07;8.70;99.90
57108;DHT22;42987;52.916;6.542;2023-04-25T12:43:34;8.50;99.90
57108;DHT22;42987;52.916;6.542;2023-04-25T12:46:00;8.50;99.90
57108;DHT22;42987;52.916;6.542;2023-04-25T12:48:26;8.60;99.90
57108;DHT22;42987;52.916;6.542;2023-04-25T12:50:52;8.90;99.90
57108;DHT22;42987;52.916;6.542;2023-04-25T12:53:22;9.20;99.90
57108;DHT22;42987;52.916;6.542;2023-04-25T12:55:49;9.30;99.90
57108;DHT22;42987;52.916;6.542;2023-04-25T12:58:17;9.40;99.90
57108;DHT22;42987;52.916;6.542;2023-04-25T13:00:44;9.40;99.90
57108;DHT22;42987;52.916;6.542;2023-04-25T13:03:10;9.50;99.00
57108;DHT22;42987;52.916;6.542;2023-04-25T13:05:37;9.50;96.60
57108;DHT22;42987;52.916;6.542;2023-04-25T13:08:03;9.40;97.20
57108;DHT22;42987;52.916;6.542;2023-04-25T13:10:29;9.50;96.40
57108;DHT22;42987;52.916;6.542;2023-04-25T13:12:55;9.60;97.20
57108;DHT22;42987;52.916;6.542;2023-04-25T13:15:21;9.70;97.10
57108;DHT22;42987;52.916;6.542;2023-04-25T13:17:47;10.00;96.10
57108;DHT22;42987;52.916;6.542;2023-04-25T13:20:13;10.30;96.70
57108;DHT22;42987;52.916;6.542;2023-04-25T13:22:42;10.60;96.40
57108;DHT22;42987;52.916;6.542;2023-04-25T13:25:11;10.60;90.00
57108;DHT22;42987;52.916;6.542;2023-04-25T13:27:37;10.70;91.80
57108;DHT22;42987;52.916;6.542;2023-04-25T13:30:05;10.90;93.20
57108;DHT22;42987;52.916;6.542;2023-04-25T13:32:34;11.10;90.30
57108;DHT22;42987;52.916;6.542;2023-04-25T13:35:05;11.10;90.90
57108;DHT22;42987;52.916;6.542;2023-04-25T13:37:31;11.10;91.20
57108;DHT22;42987;52.916;6.542;2023-04-25T13:40:02;11.00;91.20
57108;DHT22;42987;52.916;6.542;2023-04-25T13:42:33;10.80;90.20
57108;DHT22;42987;52.916;6.542;2023-04-25T13:44:59;10.40;91.40
57108;DHT22;42987;52.916;6.542;2023-04-25T13:47:26;10.10;91.40
57108;DHT22;42987;52.916;6.542;2023-04-25T13:49:52;9.80;91.20
57108;DHT22;42987;52.916;6.542;2023-04-25T13:52:21;9.60;92.50
57108;DHT22;42987;52.916;6.542;2023-04-25T13:54:47;9.50;93.60
57108;DHT22;42987;52.916;6.542;2023-04-25T13:57:13;9.50;93.20
57108;DHT22;42987;52.916;6.542;2023-04-25T13:59:39;9.60;92.40
57108;DHT22;42987;52.916;6.542;2023-04-25T14:02:06;9.40;93.10
57108;DHT22;42987;52.916;6.542;2023-04-25T14:04:33;9.30;91.90
57108;DHT22;42987;52.916;6.542;2023-04-25T14:06:58;9.30;91.30
57108;DHT22;42987;52.916;6.542;2023-04-25T14:09:24;9.40;90.40
57108;DHT22;42987;52.916;6.542;2023-04-25T14:11:54;9.60;90.80
57108;DHT22;42987;52.916;6.542;2023-04-25T14:14:21;9.90;92.60
57108;DHT22;42987;52.916;6.542;2023-04-25T14:16:48;10.20;93.00
57108;DHT22;42987;52.916;6.542;2023-04-25T14:19:14;10.20;93.30
57108;DHT22;42987;52.916;6.542;2023-04-25T14:21:40;10.30;92.50
57108;DHT22;42987;52.916;6.542;2023-04-25T14:24:07;10.40;92.10
57108;DHT22;42987;52.916;6.542;2023-04-25T14:26:33;10.50;91.10
57108;DHT22;42987;52.916;6.542;2023-04-25T14:29:00;10.70;90.90
57108;DHT22;42987;52.916;6.542;2023-04-25T14:31:25;10.90;91.30
57108;DHT22;42987;52.916;6.542;2023-04-25T14:33:51;11.10;87.90
57108;DHT22;42987;52.916;6.542;2023-04-25T14:36:17;11.10;86.90
57108;DHT22;42987;52.916;6.542;2023-04-25T14:38:43;11.20;88.20
57108;DHT22;42987;52.916;6.542;2023-04-25T14:41:09;11.30;86.10
57108;DHT22;42987;52.916;6.542;2023-04-25T14:43:36;11.10;82.00
57108;DHT22;42987;52.916;6.542;2023-04-25T14:46:02;10.80;80.30
57108;DHT22;42987;52.916;6.542;2023-04-25T14:48:29;10.60;80.60
57108;DHT22;42987;52.916;6.542;2023-04-25T14:50:58;10.40;84.10
57108;DHT22;42987;52.916;6.542;2023-04-25T14:53:28;10.50;86.80
57108;DHT22;42987;52.916;6.542;2023-04-25T14:55:54;10.40;86.10
57108;DHT22;42987;52.916;6.542;2023-04-25T14:58:20;10.30;85.40
57108;DHT22;42987;52.916;6.542;2023-04-25T15:00:47;10.40;88.50
57108;DHT22;42987;52.916;6.542;2023-04-25T15:03:12;10.50;90.00
57108;DHT22;42987;52.916;6.542;2023-04-25T15:05:42;10.50;87.40
57108;DHT22;42987;52.916;6.542;2023-04-25T15:08:07;10.40;86.10
57108;DHT22;42987;52.916;6.542;2023-04-25T15:10:33;10.50;86.10
57108;DHT22;42987;52.916;6.542;2023-04-25T15:13:00;10.70;83.40
57108;DHT22;42987;52.916;6.542;2023-04-25T15:15:26;10.70;80.00
57108;DHT22;42987;52.916;6.542;2023-04-25T15:17:52;10.80;82.20
57108;DHT22;42987;52.916;6.542;2023-04-25T15:20:20;10.90;82.50
57108;DHT22;42987;52.916;6.542;2023-04-25T15:22:46;11.00;80.30
57108;DHT22;42987;52.916;6.542;2023-04-25T15:25:15;11.00;76.00
57108;DHT22;42987;52.916;6.542;2023-04-25T15:27:44;10.90;75.60
57108;DHT22;42987;52.916;6.542;2023-04-25T15:30:13;10.60;75.50
57108;DHT22;42987;52.916;6.542;2023-04-25T15:32:49;10.40;74.90
57108;DHT22;42987;52.916;6.542;2023-04-25T15:35:15;10.30;77.00
57108;DHT22;42987;52.916;6.542;2023-04-25T15:37:41;10.40;78.10
57108;DHT22;42987;52.916;6.542;2023-04-25T15:40:10;10.40;77.60
57108;DHT22;42987;52.916;6.542;2023-04-25T15:42:43;10.20;79.90
57108;DHT22;42987;52.916;6.542;2023-04-25T15:45:10;9.90;84.10
57108;DHT22;42987;52.916;6.542;2023-04-25T15:47:37;9.50;89.40
57108;DHT22;42987;52.916;6.542;2023-04-25T15:50:05;9.10;91.90
57108;DHT22;42987;52.916;6.542;2023-04-25T15:52:32;8.80;93.70